createdAt,value
2018-03-26T00:02:29.239Z,56.10
2018-03-26T00:05:01.467Z,55.90
2018-03-26T00:07:32.661Z,55.90
2018-03-26T00:10:04.135Z,56.20
2018-03-26T00:12:35.483Z,56.60
2018-03-26T00:15:06.724Z,56.70
2018-03-26T00:17:38.244Z,56.80
2018-03-26T00:20:10.232Z,57.00
2018-03-26T00:22:41.491Z,56.90
2018-03-26T00:25:12.758Z,56.70
2018-03-26T00:27:44.007Z,56.40
2018-03-26T00:30:15.424Z,56.50
2018-03-26T00:32:46.752Z,56.70
2018-03-26T00:35:17.990Z,56.30
2018-03-26T00:37:49.243Z,56.50
2018-03-26T00:40:20.576Z,56.50
2018-03-26T00:42:52.661Z,56.70
2018-03-26T00:45:23.955Z,56.80
2018-03-26T00:47:55.199Z,56.70
2018-03-26T00:50:26.607Z,56.90
2018-03-26T00:52:57.902Z,57.00
2018-03-26T00:55:29.151Z,56.30
2018-03-26T00:58:00.453Z,56.40
2018-03-26T01:00:31.695Z,56.50
2018-03-26T01:03:10.884Z,56.20
2018-03-26T01:05:42.907Z,56.10
2018-03-26T01:08:14.135Z,56.10
2018-03-26T01:10:45.411Z,55.80
2018-03-26T01:13:16.931Z,55.60
2018-03-26T01:15:48.212Z,55.90
2018-03-26T01:18:19.695Z,56.40
2018-03-26T01:20:50.985Z,55.80
2018-03-26T01:23:22.426Z,55.90
2018-03-26T01:25:53.685Z,55.90
2018-03-26T01:28:24.942Z,56.00
2018-03-26T01:30:56.195Z,55.90
2018-03-26T01:33:27.576Z,56.20
2018-03-26T01:35:58.843Z,55.80
2018-03-26T01:38:30.056Z,56.10
2018-03-26T01:41:01.382Z,56.30
2018-03-26T01:43:33.516Z,56.30
2018-03-26T01:46:05.214Z,56.30
2018-03-26T01:48:36.457Z,56.70
2018-03-26T01:51:07.736Z,56.50
2018-03-26T01:53:39.055Z,56.40
2018-03-26T01:56:10.300Z,56.20
2018-03-26T01:58:42.290Z,57.00
2018-03-26T02:01:13.535Z,57.00
2018-03-26T02:03:44.822Z,57.90
2018-03-26T02:06:16.146Z,58.00
2018-03-26T02:08:47.324Z,57.60
2018-03-26T02:11:19.308Z,57.40
2018-03-26T02:13:50.620Z,57.40
2018-03-26T02:16:22.607Z,58.00
2018-03-26T02:18:53.922Z,58.10
2018-03-26T02:21:25.174Z,58.10
2018-03-26T02:23:57.343Z,58.40
2018-03-26T02:26:28.605Z,58.00
2018-03-26T02:29:01.110Z,58.00
2018-03-26T02:31:32.322Z,58.00
2018-03-26T02:34:03.655Z,58.00
2018-03-26T02:36:35.680Z,57.90
2018-03-26T02:39:07.267Z,58.30
2018-03-26T02:41:39.265Z,58.10
2018-03-26T02:44:10.594Z,58.10
2018-03-26T02:46:42.000Z,57.80
2018-03-26T02:49:13.293Z,58.00
2018-03-26T02:51:44.870Z,57.90
2018-03-26T02:54:16.176Z,58.00
2018-03-26T02:56:48.143Z,58.10
2018-03-26T02:59:20.473Z,58.10
2018-03-26T03:01:51.727Z,58.10
2018-03-26T03:04:22.967Z,58.00
2018-03-26T03:06:54.963Z,58.10
2018-03-26T03:09:27.042Z,57.80
2018-03-26T03:11:58.318Z,58.20
2018-03-26T03:14:29.627Z,58.20
2018-03-26T03:17:01.613Z,58.20
2018-03-26T03:19:32.952Z,58.20
2018-03-26T03:22:04.252Z,57.90
2018-03-26T03:24:35.904Z,58.00
2018-03-26T03:27:07.155Z,58.00
2018-03-26T03:29:38.399Z,58.00
2018-03-26T03:32:09.668Z,58.10
2018-03-26T03:34:41.035Z,57.80
2018-03-26T03:37:12.283Z,58.00
2018-03-26T03:39:43.629Z,58.00
2018-03-26T03:42:14.962Z,58.10
2018-03-26T03:44:47.171Z,58.00
2018-03-26T03:47:18.543Z,58.10
2018-03-26T03:49:49.837Z,58.00
2018-03-26T03:52:21.098Z,58.50
2018-03-26T03:54:52.542Z,58.10
2018-03-26T03:57:23.879Z,58.00
2018-03-26T03:59:55.497Z,58.70
2018-03-26T04:02:27.494Z,58.70
2018-03-26T04:04:58.752Z,58.70
2018-03-26T04:07:30.027Z,58.10
2018-03-26T04:10:01.252Z,58.10
2018-03-26T04:12:32.496Z,58.80
2018-03-26T04:15:03.790Z,58.60
2018-03-26T04:17:35.775Z,57.80
2018-03-26T04:20:07.039Z,57.80
2018-03-26T04:22:38.327Z,58.10
2018-03-26T04:25:09.575Z,58.40
2018-03-26T04:27:40.886Z,58.60
2018-03-26T04:30:12.136Z,58.40
2018-03-26T04:32:43.473Z,58.70
2018-03-26T04:35:14.811Z,58.50
2018-03-26T04:37:46.160Z,59.20
2018-03-26T04:40:17.373Z,59.10
2018-03-26T04:42:48.663Z,59.20
2018-03-26T04:45:19.995Z,59.30
2018-03-26T04:47:51.223Z,59.60
2018-03-26T04:50:22.511Z,59.40
2018-03-26T04:52:53.785Z,59.20
2018-03-26T04:55:25.889Z,59.60
2018-03-26T04:57:57.177Z,59.70
2018-03-26T05:00:29.168Z,59.40
2018-03-26T05:03:01.151Z,58.90
2018-03-26T05:05:32.428Z,58.90
2018-03-26T05:08:03.680Z,59.30
2018-03-26T05:10:35.040Z,60.50
2018-03-26T05:13:07.085Z,60.50
2018-03-26T05:15:40.195Z,60.50
2018-03-26T05:18:12.303Z,59.80
2018-03-26T05:20:43.580Z,59.80
2018-03-26T05:23:14.871Z,59.70
2018-03-26T05:25:46.171Z,59.80
2018-03-26T05:28:17.458Z,59.70
2018-03-26T05:30:49.499Z,61.00
2018-03-26T05:33:20.859Z,61.00
2018-03-26T05:35:52.250Z,62.00
2018-03-26T05:38:23.503Z,62.00
2018-03-26T05:40:54.811Z,61.50
2018-03-26T05:43:26.092Z,61.60
2018-03-26T05:45:57.349Z,61.50
2018-03-26T05:48:28.704Z,61.30
2018-03-26T05:51:00.079Z,61.10
2018-03-26T05:53:31.340Z,60.70
2018-03-26T05:56:03.526Z,60.50
2018-03-26T05:58:34.855Z,60.50
2018-03-26T06:01:06.609Z,60.60
2018-03-26T06:03:38.163Z,60.50
2018-03-26T06:06:09.453Z,60.50
2018-03-26T06:08:40.939Z,59.90
2018-03-26T06:11:12.230Z,59.80
2018-03-26T06:13:43.538Z,59.80
2018-03-26T06:16:14.980Z,59.90
2018-03-26T06:18:46.191Z,59.50
2018-03-26T06:21:17.637Z,59.80
2018-03-26T06:23:49.089Z,59.20
2018-03-26T06:26:20.500Z,59.50
2018-03-26T06:28:51.872Z,59.30
2018-03-26T06:31:23.249Z,59.30
2018-03-26T06:33:54.750Z,58.60
2018-03-26T06:36:41.866Z,59.30
2018-03-26T06:39:19.284Z,59.60
2018-03-26T06:41:50.606Z,59.20
2018-03-26T06:44:21.852Z,59.00
2018-03-26T06:46:53.294Z,58.90
2018-03-26T06:49:25.361Z,59.80
2018-03-26T06:51:56.591Z,59.20
2018-03-26T06:54:28.531Z,59.30
2018-03-26T06:56:59.975Z,59.30
2018-03-26T06:59:31.264Z,58.60
2018-03-26T07:02:02.544Z,58.40
2018-03-26T07:04:33.863Z,58.60
2018-03-26T07:07:05.186Z,58.40
2018-03-26T07:09:36.444Z,58.70
2018-03-26T07:12:07.769Z,59.40
2018-03-26T07:14:39.474Z,58.80
2018-03-26T07:17:10.840Z,58.60
2018-03-26T07:19:42.137Z,58.60
2018-03-26T07:22:13.468Z,59.20
2018-03-26T07:24:44.706Z,58.60
2018-03-26T07:27:16.730Z,59.40
2018-03-26T07:29:48.277Z,59.30
2018-03-26T07:32:19.553Z,59.40
2018-03-26T07:34:51.785Z,59.00
2018-03-26T07:37:23.080Z,58.90
2018-03-26T07:40:02.010Z,58.80
2018-03-26T07:42:33.972Z,58.80
2018-03-26T07:45:05.243Z,58.80
2018-03-26T07:47:36.545Z,59.30
2018-03-26T07:50:08.053Z,59.40
2018-03-26T07:52:39.284Z,59.50
2018-03-26T07:55:10.534Z,59.50
2018-03-26T07:57:41.974Z,59.30
2018-03-26T08:00:13.437Z,59.10
2018-03-26T08:02:44.925Z,59.30
2018-03-26T08:05:16.145Z,59.30
2018-03-26T08:07:47.411Z,59.30
2018-03-26T08:10:19.424Z,58.90
2018-03-26T08:12:50.667Z,58.90
2018-03-26T08:15:21.979Z,59.00
2018-03-26T08:17:53.336Z,58.80
2018-03-26T08:20:24.668Z,58.90
2018-03-26T08:22:56.705Z,59.40
2018-03-26T08:25:28.786Z,58.70
2018-03-26T08:28:00.088Z,59.20
2018-03-26T08:30:31.403Z,59.20
2018-03-26T08:33:02.647Z,58.90
2018-03-26T08:35:34.022Z,58.50
2018-03-26T08:38:06.918Z,58.70
2018-03-26T08:40:40.091Z,58.90
2018-03-26T08:43:11.832Z,58.50
2018-03-26T08:45:45.061Z,58.90
2018-03-26T08:48:16.468Z,58.60
2018-03-26T08:50:49.531Z,58.50
2018-03-26T08:53:23.095Z,58.40
2018-03-26T08:55:52.978Z,58.50
2018-03-26T08:58:24.288Z,58.40
2018-03-26T09:00:55.575Z,58.10
2018-03-26T09:03:26.938Z,57.80
2018-03-26T09:05:58.608Z,57.90
2018-03-26T09:08:29.877Z,58.50
2018-03-26T09:11:01.436Z,58.50
2018-03-26T09:13:32.987Z,58.50
2018-03-26T09:16:04.374Z,58.40
2018-03-26T09:18:35.780Z,58.40
2018-03-26T09:21:07.245Z,58.80
2018-03-26T09:23:38.586Z,59.10
2018-03-26T09:26:10.234Z,59.10
2018-03-26T09:28:42.379Z,59.60
2018-03-26T09:31:13.717Z,59.60
2018-03-26T09:33:45.004Z,59.80
2018-03-26T09:36:17.129Z,60.70
2018-03-26T09:38:48.504Z,60.70
2018-03-26T09:41:20.519Z,60.70
2018-03-26T09:43:51.931Z,60.70
2018-03-26T09:46:23.909Z,61.10
2018-03-26T09:48:55.444Z,61.10
2018-03-26T09:51:27.479Z,61.70
2018-03-26T09:53:58.763Z,61.70
2018-03-26T09:56:30.785Z,62.10
2018-03-26T09:59:02.182Z,62.10
2018-03-26T10:01:33.429Z,62.00
2018-03-26T10:04:04.753Z,62.20
2018-03-26T10:06:36.728Z,63.30
2018-03-26T10:09:08.737Z,63.50
2018-03-26T10:11:39.952Z,64.00
2018-03-26T10:14:11.968Z,64.90
2018-03-26T10:16:43.293Z,65.00
2018-03-26T10:19:15.285Z,66.10
2018-03-26T10:21:46.463Z,65.90
2018-03-26T10:24:17.844Z,65.80
2018-03-26T10:26:50.313Z,66.40
2018-03-26T10:29:22.350Z,67.10
2018-03-26T10:31:53.595Z,66.20
2018-03-26T10:34:24.838Z,66.50
2018-03-26T10:36:56.084Z,66.40
2018-03-26T10:39:27.352Z,66.70
2018-03-26T10:41:59.009Z,67.20
2018-03-26T10:44:30.348Z,67.60
2018-03-26T10:47:04.230Z,67.70
2018-03-26T10:49:35.546Z,67.50
2018-03-26T10:52:07.683Z,68.80
2018-03-26T10:54:39.695Z,69.40
2018-03-26T10:57:11.404Z,69.40
2018-03-26T10:59:42.746Z,69.80
2018-03-26T11:02:15.203Z,70.30
2018-03-26T11:04:46.946Z,70.50
2018-03-26T11:07:18.745Z,71.10
2018-03-26T11:09:50.034Z,72.20
2018-03-26T11:12:21.339Z,72.60
2018-03-26T11:14:52.656Z,72.40
2018-03-26T11:17:23.911Z,72.70
2018-03-26T11:19:55.333Z,72.80
2018-03-26T11:22:27.612Z,73.00
2018-03-26T11:24:58.938Z,73.00
2018-03-26T11:27:30.225Z,73.10
2018-03-26T11:30:01.565Z,73.40
2018-03-26T11:32:32.815Z,74.40
2018-03-26T11:35:04.091Z,74.90
2018-03-26T11:37:36.188Z,75.20
2018-03-26T11:40:07.813Z,75.20
2018-03-26T11:42:39.878Z,74.30
2018-03-26T11:45:11.514Z,74.40
2018-03-26T11:47:42.893Z,75.00
2018-03-26T11:50:14.854Z,74.50
2018-03-26T11:52:46.222Z,74.20
2018-03-26T11:55:17.878Z,73.60
2018-03-26T11:57:49.139Z,74.40
2018-03-26T12:00:20.588Z,74.00
2018-03-26T12:02:52.097Z,73.70
2018-03-26T12:05:24.221Z,72.80
2018-03-26T12:07:56.406Z,74.00
2018-03-26T12:10:27.843Z,73.30
2018-03-26T12:12:59.678Z,73.30
2018-03-26T12:15:31.793Z,75.00
2018-03-26T12:18:03.146Z,74.20
2018-03-26T12:20:47.142Z,74.40
2018-03-26T12:23:30.918Z,74.50
2018-03-26T12:26:03.027Z,75.10
2018-03-26T12:28:46.717Z,74.80
2018-03-26T12:31:18.750Z,75.00
2018-03-26T12:34:15.019Z,74.80
2018-03-26T12:36:46.511Z,75.00
2018-03-26T12:39:17.805Z,74.50
2018-03-26T12:41:49.454Z,73.70
2018-03-26T12:44:33.832Z,71.30
2018-03-26T12:47:05.194Z,71.30
2018-03-26T12:49:36.446Z,71.60
2018-03-26T12:52:20.198Z,71.30
2018-03-26T12:54:51.444Z,71.20
2018-03-26T12:57:35.098Z,71.10
2018-03-26T13:00:06.447Z,71.10
2018-03-26T13:02:38.125Z,70.90
2018-03-26T13:05:10.167Z,70.90
2018-03-26T13:07:42.832Z,70.90
2018-03-26T13:10:14.065Z,71.20
2018-03-26T13:12:45.320Z,71.20
2018-03-26T13:15:16.619Z,71.20
2018-03-26T13:17:47.976Z,71.00
2018-03-26T13:20:19.276Z,71.40
2018-03-26T13:22:51.389Z,71.80
2018-03-26T13:25:22.996Z,71.80
2018-03-26T13:27:55.133Z,71.80
2018-03-26T13:30:26.504Z,71.90
2018-03-26T13:32:57.928Z,71.50
2018-03-26T13:35:29.470Z,71.90
2018-03-26T13:38:00.717Z,71.00
2018-03-26T13:40:31.953Z,70.00
2018-03-26T13:43:03.379Z,69.80
2018-03-26T13:45:34.675Z,68.40
2018-03-26T13:48:05.936Z,67.70
2018-03-26T13:50:37.179Z,67.90
2018-03-26T13:53:08.611Z,67.60
2018-03-26T13:55:39.919Z,67.60
2018-03-26T13:58:11.201Z,67.10
2018-03-26T14:00:42.613Z,67.20
2018-03-26T14:03:13.932Z,66.70
2018-03-26T14:05:45.236Z,66.80
2018-03-26T15:33:29.826Z,66.00
2018-03-26T15:36:01.229Z,51.90
2018-03-26T15:38:32.455Z,51.80
2018-03-26T15:41:03.842Z,52.00
2018-03-26T15:43:35.191Z,52.30
2018-03-26T15:46:06.439Z,52.30
2018-03-26T15:48:37.656Z,52.50
2018-03-26T15:51:08.979Z,52.90
2018-03-26T15:53:40.487Z,53.10
2018-03-26T15:56:11.777Z,53.20
2018-03-26T15:58:43.084Z,53.70
2018-03-26T16:01:14.396Z,53.00
2018-03-26T16:03:45.712Z,52.70
2018-03-26T16:06:17.737Z,52.10
2018-03-26T16:08:50.012Z,52.50
2018-03-26T16:11:21.322Z,52.50
2018-03-26T16:13:52.603Z,52.50
2018-03-26T16:16:24.615Z,51.60
2018-03-26T16:18:55.954Z,51.60
2018-03-26T16:21:27.910Z,52.20
2018-03-26T16:23:59.884Z,52.60
2018-03-26T16:26:31.088Z,52.60
2018-03-26T16:29:02.374Z,55.90
2018-03-26T16:31:33.671Z,56.80
2018-03-26T16:34:05.056Z,57.20
2018-03-26T16:36:36.294Z,57.50
2018-03-26T16:39:08.312Z,58.80
2018-03-26T16:41:43.519Z,58.80
2018-03-26T16:44:14.788Z,59.30
2018-03-26T16:46:46.008Z,59.70
2018-03-26T16:49:17.362Z,60.00
2018-03-26T16:51:49.168Z,60.10
2018-03-26T16:54:21.269Z,58.10
2018-03-26T16:56:52.574Z,57.70
2018-03-26T16:59:23.900Z,57.50
2018-03-26T17:01:56.109Z,58.80
2018-03-26T17:04:27.325Z,58.40
2018-03-26T17:06:58.567Z,58.50
2018-03-26T17:09:29.854Z,58.90
2018-03-26T17:12:01.226Z,59.20
2018-03-26T17:14:32.613Z,59.40
2018-03-26T17:17:04.092Z,59.30
2018-03-26T17:19:36.113Z,59.70
2018-03-26T17:22:07.422Z,59.70
2018-03-26T17:24:38.739Z,60.40
2018-03-26T17:27:10.750Z,60.70
2018-03-26T17:29:42.006Z,60.70
2018-03-26T17:32:13.431Z,60.20
2018-03-26T17:34:44.752Z,61.00
2018-03-26T17:37:16.755Z,63.00
2018-03-26T17:39:48.104Z,63.00
2018-03-26T17:42:19.364Z,63.00
2018-03-26T17:44:51.487Z,64.00
2018-03-26T17:47:22.758Z,64.00
2018-03-26T17:49:54.307Z,64.50
2018-03-26T17:52:25.746Z,64.90
2018-03-26T17:54:57.822Z,64.90
2018-03-26T17:57:29.016Z,64.90
2018-03-26T18:00:00.319Z,65.30
2018-03-26T18:02:31.789Z,65.50
2018-03-26T18:05:03.058Z,65.70
2018-03-26T18:07:35.346Z,64.50
2018-03-26T18:10:06.649Z,64.50
2018-03-26T18:12:37.993Z,64.80
2018-03-26T18:15:09.229Z,64.90
2018-03-26T18:17:41.324Z,65.40
2018-03-26T18:20:13.266Z,65.70
2018-03-26T18:22:45.265Z,65.60
2018-03-26T18:25:17.209Z,65.70
2018-03-26T18:27:49.187Z,65.50
2018-03-26T18:30:20.408Z,65.80
2018-03-26T18:32:51.770Z,65.80
2018-03-26T18:35:23.715Z,65.90
2018-03-26T18:37:54.959Z,65.40
2018-03-26T18:40:26.268Z,65.80
2018-03-26T18:42:57.501Z,65.60
2018-03-26T18:45:28.759Z,65.90
2018-03-26T18:47:59.996Z,66.10
2018-03-26T18:50:31.200Z,66.10
2018-03-26T18:53:02.500Z,66.10
2018-03-26T18:55:33.794Z,66.20
2018-03-26T18:58:05.870Z,66.00
2018-03-26T19:00:38.740Z,65.90
2018-03-26T19:03:10.124Z,65.90
2018-03-26T19:05:41.400Z,66.10
2018-03-26T19:08:12.659Z,66.10
2018-03-26T19:10:44.774Z,66.10
2018-03-26T19:13:16.538Z,66.50
2018-03-26T19:15:48.553Z,66.70
2018-03-26T19:18:19.811Z,66.70
2018-03-26T19:20:51.917Z,66.50
2018-03-26T19:23:23.220Z,67.00
2018-03-26T19:25:54.561Z,66.70
2018-03-26T19:28:25.824Z,67.00
2018-03-26T19:30:57.099Z,67.90
2018-03-26T19:33:28.458Z,67.90
2018-03-26T19:35:59.655Z,67.70
2018-03-26T19:38:30.953Z,67.70
2018-03-26T19:41:02.212Z,67.40
2018-03-26T19:43:33.859Z,67.40
2018-03-26T19:46:05.573Z,67.30
2018-03-26T19:48:36.955Z,67.40
2018-03-26T19:51:08.293Z,67.60
2018-03-26T19:53:39.788Z,67.40
2018-03-26T19:56:11.048Z,67.30
2018-03-26T19:58:42.300Z,67.40
2018-03-26T20:01:13.701Z,67.30
2018-03-26T20:03:45.349Z,66.70
2018-03-26T20:06:17.386Z,68.00
2018-03-26T20:08:48.694Z,67.10
2018-03-26T20:11:20.107Z,67.10
2018-03-26T20:13:51.471Z,67.40
2018-03-26T20:16:23.696Z,67.50
2018-03-26T20:18:54.940Z,67.50
2018-03-26T20:21:26.234Z,67.10
2018-03-26T20:23:57.512Z,67.30
2018-03-26T20:26:28.784Z,68.80
2018-03-26T20:29:00.092Z,68.70
2018-03-26T20:31:31.568Z,69.40
2018-03-26T20:34:03.014Z,69.20
2018-03-26T20:36:34.465Z,68.50
2018-03-26T20:39:05.724Z,68.80
2018-03-26T20:41:37.768Z,67.60
2018-03-26T20:44:09.060Z,67.50
2018-03-26T20:46:41.048Z,68.00
2018-03-26T20:49:12.310Z,67.70
2018-03-26T20:51:43.571Z,67.80
2018-03-26T20:54:14.968Z,67.20
2018-03-26T20:56:46.974Z,67.20
2018-03-26T20:59:18.330Z,67.10
2018-03-26T21:01:50.537Z,67.70
2018-03-26T21:04:22.566Z,68.40
2018-03-26T21:06:53.863Z,68.30
2018-03-26T21:09:25.869Z,68.10
2018-03-26T21:11:57.194Z,68.10
2018-03-26T21:14:28.459Z,67.90
2018-03-26T21:16:59.677Z,68.20
2018-03-26T21:19:30.994Z,69.00
2018-03-26T21:22:03.222Z,69.00
2018-03-26T21:24:34.472Z,69.00
2018-03-26T21:27:05.770Z,68.30
2018-03-26T21:29:37.027Z,68.60
2018-03-26T21:32:08.303Z,68.50
2018-03-26T21:34:39.834Z,68.20
2018-03-26T21:37:11.121Z,68.40
2018-03-26T21:39:42.399Z,67.60
2018-03-26T21:42:13.987Z,67.80
2018-03-26T21:44:45.241Z,67.50
2018-03-26T21:47:16.538Z,67.10
2018-03-26T21:49:47.825Z,66.70
2018-03-26T21:52:19.098Z,66.60
2018-03-26T21:54:50.441Z,66.80
2018-03-26T21:57:21.737Z,66.90
2018-03-26T21:59:52.954Z,67.10
2018-03-26T22:02:24.228Z,66.80
2018-03-26T22:04:55.540Z,66.70
2018-03-26T23:29:28.808Z,66.70
2018-03-26T23:32:00.121Z,66.80
2018-03-26T23:34:31.406Z,67.20
2018-03-26T23:37:03.560Z,66.80
2018-03-26T23:39:34.845Z,66.70
2018-03-26T23:42:06.862Z,66.60
2018-03-26T23:44:38.123Z,66.60
2018-03-26T23:47:09.444Z,66.20
2018-03-26T23:49:40.705Z,66.10
2018-03-26T23:52:12.035Z,66.10
2018-03-26T23:54:43.284Z,66.20
2018-03-26T23:57:14.564Z,66.20
2018-03-26T23:59:47.715Z,66.20
